createdAt,value
2023-03-22T00:01:30.977Z,12.27
2023-03-22T00:07:32.955Z,11.43
2023-03-22T00:13:37.291Z,12.90
2023-03-22T00:19:42.117Z,11.70
2023-03-22T00:25:45.627Z,13.10
2023-03-22T00:31:49.075Z,12.80
2023-03-22T00:37:51.607Z,12.00
2023-03-22T00:43:53.502Z,13.10
2023-03-22T00:49:55.588Z,13.00
2023-03-22T00:55:57.681Z,12.90
2023-03-22T01:01:59.598Z,13.33
2023-03-22T01:08:08.531Z,13.00
2023-03-22T01:14:13.699Z,12.70
2023-03-22T01:20:15.714Z,14.57
2023-03-22T01:26:17.627Z,13.27
2023-03-22T01:32:19.570Z,12.50
2023-03-22T01:53:54.676Z,13.10
2023-03-22T01:59:56.623Z,12.73
2023-03-22T02:05:58.623Z,13.97
2023-03-22T02:12:40.431Z,13.60
2023-03-22T02:19:10.395Z,13.63
2023-03-22T02:25:33.663Z,13.50
2023-03-22T02:32:29.871Z,14.50
2023-03-22T02:39:04.558Z,14.80
2023-03-22T02:45:23.301Z,13.13
2023-03-22T02:51:59.106Z,13.30
2023-03-22T02:58:11.972Z,13.23
2023-03-22T03:04:24.685Z,12.60
2023-03-22T03:10:27.442Z,14.20
2023-03-22T03:16:34.608Z,13.50
2023-03-22T03:22:42.385Z,15.67
2023-03-22T03:29:00.748Z,13.37
2023-03-22T03:35:22.580Z,14.40
2023-03-22T03:41:29.718Z,12.80
2023-03-22T03:47:32.160Z,13.70
2023-03-22T03:53:34.071Z,12.40
2023-03-22T03:59:36.121Z,13.80
2023-03-22T04:05:38.505Z,14.87
2023-03-22T04:11:40.751Z,15.00
2023-03-22T04:17:42.664Z,14.17
2023-03-22T04:23:46.657Z,12.83
2023-03-22T04:29:48.675Z,14.20
2023-03-22T04:35:56.716Z,12.97
2023-03-22T04:41:58.707Z,14.43
2023-03-22T04:48:00.661Z,13.37
2023-03-22T04:54:02.609Z,14.30
2023-03-22T05:00:08.386Z,14.63
2023-03-22T05:06:10.524Z,13.27
2023-03-22T05:12:12.419Z,14.57
2023-03-22T05:18:14.749Z,14.20
2023-03-22T05:24:16.664Z,14.80
2023-03-22T05:30:18.795Z,13.83
2023-03-22T05:36:23.034Z,13.10
2023-03-22T05:42:25.488Z,13.33
2023-03-22T05:48:27.375Z,12.33
2023-03-22T05:54:29.282Z,13.10
2023-03-22T06:00:32.235Z,12.63
2023-03-22T06:06:34.189Z,12.87
2023-03-22T06:12:36.879Z,13.57
2023-03-22T06:18:38.899Z,11.83
2023-03-22T06:24:42.347Z,13.57
2023-03-22T06:30:44.353Z,12.57
2023-03-22T06:36:46.276Z,12.67
2023-03-22T06:42:48.399Z,14.27
2023-03-22T06:48:50.311Z,10.90
2023-03-22T06:54:52.201Z,12.20
2023-03-22T07:00:56.657Z,11.00
2023-03-22T07:06:58.632Z,11.13
2023-03-22T07:13:02.960Z,11.30
2023-03-22T07:19:04.879Z,11.80
2023-03-22T07:25:07.239Z,11.57
2023-03-22T07:31:11.782Z,11.30
2023-03-22T07:37:14.923Z,10.80
2023-03-22T07:43:16.839Z,10.40
2023-03-22T07:49:19.068Z,11.00
2023-03-22T07:55:21.054Z,10.90
2023-03-22T08:01:22.975Z,8.90
2023-03-22T08:07:25.224Z,8.70
2023-03-22T08:13:27.103Z,8.13
2023-03-22T08:19:29.119Z,8.30
2023-03-22T08:25:33.468Z,8.37
2023-03-22T08:31:36.724Z,7.17
2023-03-22T08:37:40.058Z,6.70
2023-03-22T08:43:43.024Z,6.60
2023-03-22T08:49:45.149Z,6.90
2023-03-22T08:55:47.196Z,6.17
2023-03-22T09:01:49.483Z,5.27
2023-03-22T09:07:54.584Z,6.73
2023-03-22T09:13:56.461Z,7.00
2023-03-22T09:20:11.495Z,7.13
2023-03-22T09:26:15.057Z,7.70
2023-03-22T09:32:17.865Z,8.47
2023-03-22T09:38:20.555Z,6.60
2023-03-22T09:44:39.375Z,5.70
2023-03-22T09:50:53.370Z,6.27
2023-03-22T09:57:19.836Z,5.67
2023-03-22T10:04:14.690Z,4.20
2023-03-22T10:10:23.491Z,4.43
2023-03-22T10:16:33.421Z,4.07
2023-03-22T10:22:43.937Z,4.97
2023-03-22T10:28:54.043Z,3.77
2023-03-22T10:34:57.318Z,4.60
2023-03-22T10:41:02.091Z,4.43
2023-03-22T10:47:08.241Z,3.20
2023-03-22T10:53:45.881Z,3.00
2023-03-22T10:59:55.342Z,3.43
2023-03-22T11:06:25.822Z,3.63
2023-03-22T11:12:27.770Z,3.60
2023-03-22T11:18:32.336Z,3.83
2023-03-22T11:24:35.326Z,3.83
2023-03-22T11:30:37.901Z,3.73
2023-03-22T11:43:13.328Z,4.03
2023-03-22T11:49:17.738Z,3.20
2023-03-22T11:55:20.714Z,3.20
2023-03-22T12:01:39.532Z,3.33
2023-03-22T12:07:42.978Z,3.53
2023-03-22T12:14:20.268Z,2.70
2023-03-22T12:21:01.256Z,2.37
2023-03-22T12:27:31.761Z,2.90
2023-03-22T12:33:47.953Z,2.70
2023-03-22T12:40:15.455Z,3.10
2023-03-22T12:46:29.759Z,2.73
2023-03-22T12:53:02.407Z,3.30
2023-03-22T12:59:11.856Z,2.77
2023-03-22T13:05:14.326Z,3.40
2023-03-22T13:11:24.334Z,3.10
2023-03-22T13:17:26.204Z,2.37
2023-03-22T13:23:28.340Z,2.67
2023-03-22T13:29:33.156Z,2.70
2023-03-22T13:35:57.744Z,2.77
2023-03-22T13:42:16.137Z,2.27
2023-03-22T13:48:56.137Z,2.20
2023-03-22T13:54:59.363Z,2.57
2023-03-22T14:01:02.919Z,2.70
2023-03-22T14:07:33.767Z,2.70
2023-03-22T14:13:44.359Z,2.50
2023-03-22T14:19:47.494Z,1.90
